Terminal Aerodrome Forecast
Issued by NWS

Home | Current Version | Previous Version | Text Only | Print | Product List | Glossary On
Versions: 1 2 3 4 5 6 7 8 9 10 11 12 13 14 15 16 17 18 19 20 21 22 23 24 25 26
000
FTPA31 PHFO 201700
TAFKOA
TAF
PHKO 201734Z 2018/2118 VRB04KT P6SM SKC
     FM202000 21009KT P6SM FEW030 SCT060
     FM210100 23010KT P6SM VCSH SCT025 OVC045
     FM210800 11004KT P6SM SCT025 BKN060=

USA.gov is the U.S. government's official web portal to all federal, state and local government web resources and services.